PROFILE

 METAR AND TAF INFORMATION
ADDS - METARS form results

(2237 UTC 10 December 2018)
http://aviationweather.gov/metar/data/
 
TJBQ 102150Z 10008KT 10SM CLR 26/21 A3006
TJBQ 101720Z 1018/1118 08014G22KT P6SM VCSH SCT025 SCT050 FM102200 11010KT P6SM FEW025 SCT060 FM111400 08013KT P6SM FEW025 AMD NOT SKED 1102/1111 

 AIRPORT MAP

 RUNWAY INFORMATION
Runway 08 Runway length 11702 ft Runway width 200 ft
Runway elevation 237 ft Runway displaced threshold 0 ft Runway heading 72
Runway 26 Runway length 11702 ft Runway width 200 ft
Runway elevation 194 ft Runway displaced threshold 0 ft Runway heading 252

 AIRPORT FREQUENCIES
Type A/D Name SAN JUAN C Frequency 135.7 MHZ
Type MISC Name AIR CG Frequency 34.5 MHZ
Type RDO Name SAN JUAN R Frequency 113.5 MHZ
Type UNIC Name CTAF/UNICO Frequency 123 MHZ

 AIRPORT NEAR NAVIGATION AIDS
Type VORTAC Name Borinquen Frequency 113500 KHZ